createdAt,value
2023-04-02T00:02:16.353Z,95891.13
2023-04-02T00:04:42.737Z,95894.66
2023-04-02T00:07:09.110Z,95896.34
2023-04-02T00:09:35.452Z,95899.63
2023-04-02T00:12:01.779Z,95891.09
2023-04-02T00:14:28.111Z,95892.94
2023-04-02T00:16:54.437Z,95898.84
2023-04-02T00:19:20.774Z,95890.44
2023-04-02T00:21:47.149Z,95897.03
2023-04-02T00:24:13.544Z,95891.25
2023-04-02T00:26:39.929Z,95894.19
2023-04-02T00:29:06.337Z,95891.81
2023-04-02T00:31:32.751Z,95893.28
2023-04-02T00:33:59.097Z,95898.38
2023-04-02T00:36:25.466Z,95899.06
2023-04-02T00:38:51.849Z,95903.78
2023-04-02T00:41:18.305Z,95900.59
2023-04-02T00:43:44.674Z,95903.06
2023-04-02T00:46:11.203Z,95912.19
2023-04-02T00:48:37.617Z,95918.66
2023-04-02T00:51:03.968Z,95907.59
2023-04-02T00:53:30.333Z,95917.56
2023-04-02T00:55:56.714Z,95910.41
2023-04-02T00:58:23.116Z,95918.38
2023-04-02T01:00:49.482Z,95912.03
2023-04-02T01:03:16.109Z,95910.13
2023-04-02T01:05:42.632Z,95903.09
2023-04-02T01:08:09.395Z,95900.97
2023-04-02T01:10:35.778Z,95906.09
2023-04-02T01:13:02.140Z,95917.19
2023-04-02T01:15:28.518Z,95913.56
2023-04-02T01:17:54.886Z,95922.09
2023-04-02T01:20:21.265Z,95913.94
2023-04-02T01:22:47.648Z,95911.47
2023-04-02T01:25:14.013Z,95917.94
2023-04-02T01:27:40.348Z,95928.50
2023-04-02T01:30:06.718Z,95922.50
2023-04-02T01:32:33.096Z,95917.50
2023-04-02T01:34:59.452Z,95914.22
2023-04-02T01:37:25.821Z,95918.78
2023-04-02T01:39:52.168Z,95915.25
2023-04-02T01:42:18.540Z,95915.47
2023-04-02T01:44:44.925Z,95918.53
2023-04-02T01:47:11.310Z,95919.66
2023-04-02T01:49:37.651Z,95917.78
2023-04-02T01:52:03.985Z,95921.97
2023-04-02T01:54:30.360Z,95927.19
2023-04-02T01:56:56.732Z,95922.84
2023-04-02T01:59:23.097Z,95925.78
2023-04-02T02:01:49.496Z,95932.13
2023-04-02T02:04:15.854Z,95929.19
2023-04-02T02:06:42.235Z,95930.38
2023-04-02T02:09:08.572Z,95929.91
2023-04-02T02:11:34.901Z,95931.03
2023-04-02T02:14:01.236Z,95932.38
2023-04-02T02:16:27.689Z,95935.00
2023-04-02T02:18:54.095Z,95934.41
2023-04-02T02:21:20.459Z,95941.69
2023-04-02T02:23:46.833Z,95942.81
2023-04-02T02:26:13.210Z,95945.78
2023-04-02T02:28:39.549Z,95950.34
2023-04-02T02:31:05.890Z,95948.84
2023-04-02T02:33:32.227Z,95943.50
2023-04-02T02:35:58.635Z,95943.41
2023-04-02T02:38:25.000Z,95950.97
2023-04-02T02:40:51.335Z,95943.00
2023-04-02T02:43:17.664Z,95953.19
2023-04-02T02:45:44.046Z,95950.00
2023-04-02T02:48:10.464Z,95941.63
2023-04-02T02:50:36.865Z,95944.09
2023-04-02T02:53:03.253Z,95945.22
2023-04-02T02:55:29.611Z,95943.66
2023-04-02T02:57:56.003Z,95946.47
2023-04-02T03:00:22.358Z,95951.31
2023-04-02T03:02:48.793Z,95949.31
2023-04-02T03:05:15.221Z,95951.31
2023-04-02T03:07:41.561Z,95953.72
2023-04-02T03:10:07.938Z,95958.84
2023-04-02T03:12:34.297Z,95954.00
2023-04-02T03:15:00.696Z,95963.53
2023-04-02T03:17:27.124Z,95970.56
2023-04-02T03:19:53.516Z,95976.34
2023-04-02T03:22:19.893Z,95966.03
2023-04-02T03:24:46.243Z,95975.47
2023-04-02T03:27:12.575Z,95966.59
2023-04-02T03:29:38.921Z,95965.81
2023-04-02T03:32:05.293Z,95968.06
2023-04-02T03:34:31.642Z,95971.03
2023-04-02T03:36:57.964Z,95973.06
2023-04-02T03:39:24.352Z,95972.41
2023-04-02T03:41:50.702Z,95968.09
2023-04-02T03:44:17.040Z,95965.28
2023-04-02T03:46:43.439Z,95966.88
2023-04-02T03:49:09.773Z,95962.78
2023-04-02T03:51:36.153Z,95972.09
2023-04-02T03:54:02.511Z,95963.16
2023-04-02T03:56:28.898Z,95978.00
2023-04-02T03:58:55.297Z,95973.38
2023-04-02T04:01:21.691Z,95983.22
2023-04-02T04:03:48.102Z,95976.41
2023-04-02T04:06:14.513Z,95977.34
2023-04-02T04:08:40.858Z,95983.59
2023-04-02T04:11:07.320Z,95982.78
2023-04-02T04:13:33.726Z,95985.06
2023-04-02T04:16:00.076Z,95971.78
2023-04-02T04:18:26.436Z,95969.41
2023-04-02T04:20:52.775Z,95976.22
2023-04-02T04:23:19.099Z,95976.66
2023-04-02T04:25:45.467Z,95976.66
2023-04-02T04:28:11.838Z,95974.06
2023-04-02T04:30:38.176Z,95987.53
2023-04-02T04:33:04.623Z,95983.47
2023-04-02T04:35:31.016Z,95988.81
2023-04-02T04:37:57.384Z,95989.84
2023-04-02T04:40:23.707Z,95993.00
2023-04-02T04:42:50.085Z,95989.25
2023-04-02T04:45:16.479Z,95996.09
2023-04-02T04:47:42.872Z,96003.25
2023-04-02T04:50:09.264Z,95998.94
2023-04-02T04:52:35.598Z,96004.69
2023-04-02T04:55:01.979Z,96003.25
2023-04-02T04:57:28.530Z,95999.84
2023-04-02T04:59:55.112Z,96000.50
2023-04-02T05:02:21.496Z,95995.28
2023-04-02T05:04:47.869Z,95997.91
2023-04-02T05:07:14.292Z,96008.22
2023-04-02T05:09:40.685Z,96005.16
2023-04-02T05:12:07.028Z,96015.13
2023-04-02T05:14:33.384Z,96008.81
2023-04-02T05:16:59.772Z,96010.63
2023-04-02T05:19:26.164Z,96013.16
2023-04-02T05:21:52.516Z,96016.22
2023-04-02T05:24:18.848Z,96011.00
2023-04-02T05:26:45.243Z,96020.31
2023-04-02T05:29:11.608Z,96014.97
2023-04-02T05:31:38.013Z,96022.56
2023-04-02T05:34:04.464Z,96019.41
2023-04-02T05:36:30.810Z,96023.03
2023-04-02T05:38:57.195Z,96025.75
2023-04-02T05:41:23.601Z,96039.84
2023-04-02T05:43:49.957Z,96027.78
2023-04-02T05:46:16.391Z,96034.63
2023-04-02T05:48:42.790Z,96037.00
2023-04-02T05:51:09.187Z,96030.88
2023-04-02T05:53:35.585Z,96033.13
2023-04-02T05:56:01.937Z,96040.97
2023-04-02T06:00:57.600Z,96042.56
2023-04-02T06:03:24.101Z,96043.72
2023-04-02T06:05:50.622Z,96045.53
2023-04-02T06:08:16.991Z,96054.84
2023-04-02T06:10:43.356Z,96043.94
2023-04-02T06:13:09.750Z,96048.84
2023-04-02T06:15:36.328Z,96049.03
2023-04-02T06:18:02.912Z,96047.09
2023-04-02T06:20:29.366Z,96057.31
2023-04-02T06:22:55.832Z,96046.88
2023-04-02T06:25:22.245Z,96059.16
2023-04-02T06:27:48.611Z,96058.94
2023-04-02T06:30:14.994Z,96057.78
2023-04-02T06:32:41.403Z,96055.28
2023-04-02T06:35:07.810Z,96062.03
2023-04-02T06:37:34.167Z,96062.84
2023-04-02T06:40:00.506Z,96063.16
2023-04-02T06:42:26.845Z,96068.72
2023-04-02T06:44:53.220Z,96076.44
2023-04-02T06:47:19.565Z,96072.53
2023-04-02T06:49:45.909Z,96070.53
2023-04-02T06:52:12.295Z,96079.28
2023-04-02T06:54:38.693Z,96077.59
2023-04-02T06:57:05.170Z,96083.94
2023-04-02T06:59:31.582Z,96087.59
2023-04-02T07:01:57.969Z,96097.59
2023-04-02T07:04:24.400Z,96099.31
2023-04-02T07:06:50.784Z,96098.03
2023-04-02T07:09:17.169Z,96098.53
2023-04-02T07:11:43.525Z,96095.56
2023-04-02T07:14:09.900Z,96104.53
2023-04-02T07:16:36.292Z,96107.16
2023-04-02T07:19:02.686Z,96106.13
2023-04-02T07:21:29.056Z,96106.91
2023-04-02T07:23:55.399Z,96108.38
2023-04-02T07:26:21.776Z,96110.59
2023-04-02T07:28:48.173Z,96106.50
2023-04-02T07:31:14.548Z,96116.03
2023-04-02T07:33:42.069Z,96118.66
2023-04-02T07:36:08.653Z,96120.72
2023-04-02T07:38:35.041Z,96119.13
2023-04-02T07:41:01.438Z,96125.16
2023-04-02T07:43:27.837Z,96129.22
2023-04-02T07:45:54.194Z,96123.44
2023-04-02T07:48:20.580Z,96127.53
2023-04-02T07:50:46.975Z,96121.25
2023-04-02T07:53:13.365Z,96126.84
2023-04-02T07:55:39.719Z,96133.88
2023-04-02T07:58:06.074Z,96131.59
2023-04-02T08:00:32.473Z,96141.03
2023-04-02T08:02:58.872Z,96143.06
2023-04-02T08:05:25.413Z,96141.38
2023-04-02T08:07:51.805Z,96140.69
2023-04-02T08:10:18.199Z,96147.03
2023-04-02T08:12:44.655Z,96143.59
2023-04-02T08:15:11.009Z,96146.22
2023-04-02T08:17:37.400Z,96148.59
2023-04-02T08:20:03.794Z,96144.84
2023-04-02T08:22:30.197Z,96141.88
2023-04-02T08:24:56.539Z,96152.78
2023-04-02T08:27:22.944Z,96149.78
2023-04-02T08:29:49.295Z,96154.00
2023-04-02T08:32:15.691Z,96142.09
2023-04-02T08:34:42.102Z,96155.63
2023-04-02T08:37:08.472Z,96148.94
2023-04-02T08:39:34.834Z,96154.34
2023-04-02T08:42:01.176Z,96155.41
2023-04-02T08:44:27.554Z,96154.63
2023-04-02T08:46:54.122Z,96158.97
2023-04-02T08:49:20.474Z,96164.56
2023-04-02T08:51:46.806Z,96162.78
2023-04-02T08:54:13.148Z,96171.22
2023-04-02T08:56:39.482Z,96165.25
2023-04-02T08:59:05.879Z,96164.06
2023-04-02T09:01:32.285Z,96164.88
2023-04-02T09:03:58.676Z,96164.69
2023-04-02T09:06:25.069Z,96175.19
2023-04-02T09:08:51.421Z,96173.22
2023-04-02T09:11:17.808Z,96184.56
2023-04-02T09:13:44.154Z,96165.34
2023-04-02T09:16:10.574Z,96172.34
2023-04-02T09:18:37.099Z,96176.47
2023-04-02T09:21:03.490Z,96183.63
2023-04-02T09:23:29.883Z,96182.34
2023-04-02T09:26:04.082Z,96188.38
2023-04-02T09:28:31.140Z,96192.84
2023-04-02T09:30:57.482Z,96191.31
2023-04-02T09:33:23.861Z,96197.16
2023-04-02T09:35:50.247Z,96201.91
2023-04-02T09:38:16.610Z,96201.75
2023-04-02T09:40:42.999Z,96203.03
2023-04-02T09:43:09.369Z,96208.19
2023-04-02T09:45:35.982Z,96213.59
2023-04-02T09:48:02.613Z,96203.53
2023-04-02T09:50:29.045Z,96211.78
2023-04-02T09:52:55.392Z,96215.59
2023-04-02T09:55:21.802Z,96227.34
2023-04-02T09:57:48.242Z,96223.16
2023-04-02T10:00:29.995Z,96229.09
2023-04-02T10:02:58.279Z,96227.22
2023-04-02T10:05:39.237Z,96230.22
2023-04-02T10:08:07.862Z,96234.88
2023-04-02T10:10:34.390Z,96231.16
2023-04-02T10:13:00.923Z,96234.75
2023-04-02T10:15:27.258Z,96246.34
2023-04-02T10:17:53.662Z,96236.97
2023-04-02T10:20:20.042Z,96235.47
2023-04-02T10:22:46.430Z,96241.84
2023-04-02T10:25:12.783Z,96245.34
2023-04-02T10:27:39.139Z,96243.50
2023-04-02T10:30:05.526Z,96243.34
2023-04-02T10:32:31.995Z,96247.31
2023-04-02T10:34:58.381Z,96248.66
2023-04-02T10:37:24.728Z,96255.09
2023-04-02T10:39:51.104Z,96257.59
2023-04-02T10:42:17.469Z,96259.69
2023-04-02T10:44:43.865Z,96254.69
2023-04-02T10:47:10.269Z,96259.94
2023-04-02T10:49:36.639Z,96254.22
2023-04-02T10:52:03.054Z,96253.78
2023-04-02T10:54:29.493Z,96255.31
2023-04-02T10:56:55.890Z,96258.47
2023-04-02T10:59:22.312Z,96258.94
2023-04-02T11:01:48.747Z,96260.34
2023-04-02T11:04:15.139Z,96258.69
2023-04-02T11:06:41.564Z,96254.81
2023-04-02T11:09:07.971Z,96263.97
2023-04-02T11:11:34.325Z,96265.81
2023-04-02T11:14:00.708Z,96267.09
2023-04-02T11:16:27.129Z,96270.00
2023-04-02T11:18:53.623Z,96267.88
2023-04-02T11:21:20.048Z,96264.22
2023-04-02T11:23:46.414Z,96270.97
2023-04-02T11:26:12.778Z,96274.88
2023-04-02T11:28:39.182Z,96275.69
2023-04-02T11:31:05.594Z,96271.78
2023-04-02T11:33:38.139Z,96272.25
2023-04-02T11:36:05.669Z,96276.09
2023-04-02T11:38:32.069Z,96282.31
2023-04-02T11:40:58.449Z,96285.75
2023-04-02T11:43:24.840Z,96287.88
2023-04-02T11:45:53.484Z,96288.13
2023-04-02T11:48:20.048Z,96290.50
2023-04-02T11:50:46.749Z,96291.78
2023-04-02T11:53:13.312Z,96298.13
2023-04-02T11:55:39.926Z,96304.66
2023-04-02T11:58:06.449Z,96307.53
2023-04-02T12:00:32.857Z,96304.03
2023-04-02T12:02:59.270Z,96305.59
2023-04-02T12:05:25.734Z,96307.69
2023-04-02T12:07:52.399Z,96304.50
2023-04-02T12:10:19.042Z,96316.06
2023-04-02T12:12:45.442Z,96309.63
2023-04-02T12:15:11.811Z,96313.91
2023-04-02T12:17:38.261Z,96317.56
2023-04-02T12:20:05.920Z,96311.19
2023-04-02T12:22:32.431Z,96324.72
2023-04-02T12:24:58.786Z,96317.56
2023-04-02T12:27:25.173Z,96316.75
2023-04-02T12:29:51.523Z,96320.56
2023-04-02T12:32:17.876Z,96323.84
2023-04-02T12:34:44.229Z,96317.41
2023-04-02T12:37:10.648Z,96324.06
2023-04-02T12:39:37.046Z,96324.47
2023-04-02T12:42:03.383Z,96321.06
2023-04-02T12:44:29.729Z,96325.75
2023-04-02T12:46:56.151Z,96322.19
2023-04-02T12:49:22.523Z,96332.34
2023-04-02T12:51:48.883Z,96329.97
2023-04-02T12:54:15.266Z,96318.84
2023-04-02T12:56:41.621Z,96328.38
2023-04-02T12:59:08.018Z,96336.03
2023-04-02T13:01:34.450Z,96336.97
2023-04-02T13:04:00.902Z,96334.03
2023-04-02T13:06:27.361Z,96335.06
2023-04-02T13:08:53.830Z,96338.56
2023-04-02T13:11:20.190Z,96331.72
2023-04-02T13:13:46.534Z,96326.25
2023-04-02T13:16:12.953Z,96328.28
2023-04-02T13:18:39.382Z,96331.00
2023-04-02T13:21:05.781Z,96332.44
2023-04-02T13:23:32.180Z,96332.53
2023-04-02T13:25:58.551Z,96326.00
2023-04-02T13:28:24.984Z,96340.31
2023-04-02T13:30:51.371Z,96328.75
2023-04-02T13:33:17.756Z,96332.72
2023-04-02T13:35:44.198Z,96327.59
2023-04-02T13:38:10.657Z,96331.44
2023-04-02T13:40:37.331Z,96334.00
2023-04-02T13:43:03.928Z,96337.59
2023-04-02T13:45:30.294Z,96334.13
2023-04-02T13:47:56.689Z,96339.22
2023-04-02T13:50:23.153Z,96336.88
2023-04-02T13:52:49.567Z,96328.22
2023-04-02T13:55:15.958Z,96331.88
2023-04-02T13:57:42.375Z,96331.72
2023-04-02T14:00:08.819Z,96334.13
2023-04-02T14:02:35.230Z,96325.50
2023-04-02T14:05:01.658Z,96333.97
2023-04-02T14:07:28.062Z,96327.19
2023-04-02T14:09:54.433Z,96330.91
2023-04-02T14:12:20.859Z,96327.25
2023-04-02T14:14:47.212Z,96327.25
2023-04-02T14:17:13.629Z,96333.69
2023-04-02T14:19:39.987Z,96329.94
2023-04-02T14:22:06.343Z,96335.91
2023-04-02T14:24:32.757Z,96340.53
2023-04-02T14:26:59.165Z,96340.06
2023-04-02T14:29:27.507Z,96340.78
2023-04-02T14:31:55.166Z,96335.75
2023-04-02T14:34:21.532Z,96349.06
2023-04-02T14:36:47.881Z,96351.91
2023-04-02T14:39:14.261Z,96346.66
2023-04-02T14:41:40.621Z,96349.13
2023-04-02T14:44:07.044Z,96353.19
2023-04-02T14:46:34.891Z,96360.03
2023-04-02T14:49:03.227Z,96350.97
2023-04-02T14:51:29.601Z,96354.63
2023-04-02T14:53:55.969Z,96356.06
2023-04-02T14:56:22.342Z,96355.50
2023-04-02T14:58:48.671Z,96355.03
2023-04-02T15:01:15.027Z,96357.59
2023-04-02T15:03:41.386Z,96360.38
2023-04-02T15:06:07.766Z,96360.38
2023-04-02T15:08:34.110Z,96364.59
2023-04-02T15:11:03.398Z,96355.44
2023-04-02T15:13:30.751Z,96365.47
2023-04-02T15:15:57.129Z,96365.22
2023-04-02T15:18:23.566Z,96363.88
2023-04-02T15:20:49.910Z,96358.94
2023-04-02T15:23:16.277Z,96365.47
2023-04-02T15:25:42.668Z,96368.25
2023-04-02T15:28:09.071Z,96364.34
2023-04-02T15:30:35.861Z,96371.94
2023-04-02T15:33:02.458Z,96371.69
2023-04-02T15:35:28.857Z,96367.44
2023-04-02T15:37:55.246Z,96367.16
2023-04-02T15:40:21.637Z,96373.09
2023-04-02T15:42:48.017Z,96374.03
2023-04-02T15:45:14.416Z,96371.16
2023-04-02T15:47:40.840Z,96376.13
2023-04-02T15:50:07.250Z,96371.66
2023-04-02T15:52:33.604Z,96371.81
2023-04-02T15:54:59.941Z,96373.78
2023-04-02T15:57:26.343Z,96371.00
2023-04-02T15:59:52.769Z,96366.22
2023-04-02T16:02:19.118Z,96372.28
2023-04-02T16:04:45.493Z,96372.72
2023-04-02T16:07:11.878Z,96368.47
2023-04-02T16:09:38.231Z,96371.47
2023-04-02T16:12:04.608Z,96375.19
2023-04-02T16:14:30.954Z,96372.09
2023-04-02T16:16:57.388Z,96373.72
2023-04-02T16:19:24.121Z,96379.50
2023-04-02T16:21:50.517Z,96378.97
2023-04-02T16:24:16.866Z,96385.16
2023-04-02T16:26:43.223Z,96384.34
2023-04-02T16:29:09.641Z,96390.50
2023-04-02T16:31:36.066Z,96390.66
2023-04-02T16:34:02.526Z,96395.91
2023-04-02T16:36:28.957Z,96394.78
2023-04-02T16:38:55.358Z,96394.56
2023-04-02T16:41:21.699Z,96399.75
2023-04-02T16:43:48.029Z,96404.88
2023-04-02T16:46:14.874Z,96413.56
2023-04-02T16:48:42.055Z,96409.56
2023-04-02T16:51:08.383Z,96416.31
2023-04-02T16:53:34.760Z,96418.13
2023-04-02T16:56:01.106Z,96411.94
2023-04-02T16:58:27.478Z,96417.03
2023-04-02T17:00:53.873Z,96414.97
2023-04-02T17:03:20.342Z,96418.75
2023-04-02T17:05:46.728Z,96429.06
2023-04-02T17:08:13.055Z,96427.13
2023-04-02T17:10:39.422Z,96436.47
2023-04-02T17:13:05.788Z,96429.22
2023-04-02T17:15:32.150Z,96435.88
2023-04-02T17:17:58.534Z,96434.16
2023-04-02T17:20:24.910Z,96443.03
2023-04-02T17:22:51.241Z,96447.81
2023-04-02T17:25:17.629Z,96444.66
2023-04-02T17:27:43.978Z,96451.81
2023-04-02T17:30:10.322Z,96453.31
2023-04-02T17:32:36.683Z,96455.59
2023-04-02T17:35:03.036Z,96459.69
2023-04-02T17:37:29.379Z,96456.84
2023-04-02T17:39:55.764Z,96461.28
2023-04-02T17:42:22.169Z,96465.34
2023-04-02T17:44:48.579Z,96463.44
2023-04-02T17:47:14.967Z,96463.56
2023-04-02T17:49:41.378Z,96468.91
2023-04-02T17:52:07.740Z,96472.22
2023-04-02T17:54:34.121Z,96468.00
2023-04-02T17:57:00.526Z,96468.81
2023-04-02T17:59:26.920Z,96478.94
2023-04-02T18:01:53.262Z,96480.19
2023-04-02T18:04:19.648Z,96485.31
2023-04-02T18:06:45.986Z,96480.19
2023-04-02T18:09:12.386Z,96489.44
2023-04-02T18:11:38.791Z,96485.44
2023-04-02T18:14:05.124Z,96489.09
2023-04-02T18:16:31.471Z,96489.56
2023-04-02T18:18:57.830Z,96486.59
2023-04-02T18:21:24.222Z,96482.94
2023-04-02T18:23:50.567Z,96486.44
2023-04-02T18:26:16.914Z,96489.31
2023-04-02T18:28:43.282Z,96484.31
2023-04-02T18:31:09.657Z,96483.84
2023-04-02T18:33:36.054Z,96485.44
2023-04-02T18:36:02.480Z,96493.53
2023-04-02T18:38:28.895Z,96502.28
2023-04-02T18:40:55.283Z,96503.09
2023-04-02T18:43:21.638Z,96507.53
2023-04-02T18:45:47.992Z,96507.88
2023-04-02T18:48:14.442Z,96516.66
2023-04-02T18:50:40.781Z,96511.69
2023-04-02T18:53:07.141Z,96514.47
2023-04-02T18:55:33.638Z,96510.81
2023-04-02T18:58:00.002Z,96516.72
2023-04-02T19:00:26.357Z,96518.09
2023-04-02T19:02:52.802Z,96523.56
2023-04-02T19:05:19.260Z,96519.34
2023-04-02T19:07:45.773Z,96522.09
2023-04-02T19:10:12.150Z,96524.81
2023-04-02T19:12:38.527Z,96528.03
2023-04-02T19:15:04.862Z,96538.22
2023-04-02T19:17:31.305Z,96531.00
2023-04-02T19:19:57.653Z,96534.13
2023-04-02T19:22:24.035Z,96543.38
2023-04-02T19:24:50.439Z,96541.91
2023-04-02T19:27:16.811Z,96547.44
2023-04-02T19:29:43.162Z,96554.38
2023-04-02T19:32:09.500Z,96557.06
2023-04-02T19:34:35.837Z,96559.44
2023-04-02T19:37:02.222Z,96557.22
2023-04-02T19:39:28.751Z,96563.25
2023-04-02T19:41:55.130Z,96569.78
2023-04-02T19:44:21.553Z,96565.69
2023-04-02T19:46:47.931Z,96565.88
2023-04-02T19:49:14.340Z,96568.59
2023-04-02T19:51:40.736Z,96574.44
2023-04-02T19:54:07.083Z,96574.06
2023-04-02T19:56:33.527Z,96581.03
2023-04-02T19:59:02.431Z,96580.72
2023-04-02T20:01:34.357Z,96587.75
2023-04-02T20:04:00.815Z,96594.34
2023-04-02T20:06:27.280Z,96592.69
2023-04-02T20:08:53.673Z,96600.47
2023-04-02T20:11:20.060Z,96605.41
2023-04-02T20:13:46.457Z,96601.03
2023-04-02T20:16:12.875Z,96601.19
2023-04-02T20:18:39.298Z,96598.81
2023-04-02T20:21:05.669Z,96605.78
2023-04-02T20:23:32.015Z,96603.38
2023-04-02T20:25:58.359Z,96606.66
2023-04-02T20:28:24.718Z,96603.81
2023-04-02T20:30:51.201Z,96602.94
2023-04-02T20:33:17.808Z,96609.78
2023-04-02T20:35:44.370Z,96597.91
2023-04-02T20:38:10.765Z,96601.78
2023-04-02T20:40:37.395Z,96597.88
2023-04-02T20:43:04.085Z,96595.38
2023-04-02T20:45:30.431Z,96607.44
2023-04-02T20:47:56.884Z,96606.88
2023-04-02T20:50:23.249Z,96614.28
2023-04-02T20:52:49.608Z,96615.72
2023-04-02T20:55:15.956Z,96608.75
2023-04-02T20:57:42.302Z,96613.84
2023-04-02T21:00:08.684Z,96623.44
2023-04-02T21:02:35.071Z,96618.94
2023-04-02T21:05:01.476Z,96624.59
2023-04-02T21:07:27.874Z,96627.94
2023-04-02T21:09:54.214Z,96619.38
2023-04-02T21:12:20.594Z,96611.06
2023-04-02T21:14:46.955Z,96615.00
2023-04-02T21:17:13.311Z,96622.13
2023-04-02T21:19:39.698Z,96618.34
2023-04-02T21:22:06.093Z,96617.63
2023-04-02T21:24:32.447Z,96614.56
2023-04-02T21:26:58.824Z,96628.66
2023-04-02T21:29:25.218Z,96614.13
2023-04-02T21:31:51.589Z,96623.00
2023-04-02T21:34:18.031Z,96628.09
2023-04-02T21:36:44.445Z,96631.72
2023-04-02T21:39:10.840Z,96620.25
2023-04-02T21:41:37.194Z,96624.44
2023-04-02T21:44:03.594Z,96621.81
2023-04-02T21:46:29.959Z,96624.28
2023-04-02T21:48:56.387Z,96619.56
2023-04-02T21:51:22.802Z,96626.41
2023-04-02T21:53:49.155Z,96620.25
2023-04-02T21:56:15.496Z,96622.84
2023-04-02T21:58:41.851Z,96627.50
2023-04-02T22:01:14.013Z,96625.00
2023-04-02T22:03:46.845Z,96622.25
2023-04-02T22:06:13.305Z,96618.91
2023-04-02T22:08:39.701Z,96619.91
2023-04-02T22:11:06.062Z,96616.28
2023-04-02T22:13:32.399Z,96611.81
2023-04-02T22:15:58.739Z,96606.69
2023-04-02T22:18:25.076Z,96606.50
2023-04-02T22:20:51.470Z,96609.81
2023-04-02T22:23:18.911Z,96611.47
2023-04-02T22:25:45.947Z,96618.59
2023-04-02T22:28:12.311Z,96622.25
2023-04-02T22:30:39.012Z,96615.09
2023-04-02T22:33:05.624Z,96608.47
2023-04-02T22:35:32.031Z,96613.13
2023-04-02T22:37:58.428Z,96609.44
2023-04-02T22:40:24.773Z,96616.03
2023-04-02T22:42:51.151Z,96608.22
2023-04-02T22:45:17.530Z,96617.69
2023-04-02T22:47:43.924Z,96609.53
2023-04-02T22:50:10.324Z,96603.13
2023-04-02T22:52:36.735Z,96606.84
2023-04-02T22:55:03.106Z,96601.78
2023-04-02T22:57:29.519Z,96608.38
2023-04-02T22:59:55.893Z,96615.88
2023-04-02T23:02:22.259Z,96617.03
2023-04-02T23:04:48.684Z,96610.63
2023-04-02T23:07:15.060Z,96612.69
2023-04-02T23:09:41.409Z,96614.00
2023-04-02T23:12:07.742Z,96596.53
2023-04-02T23:14:34.125Z,96602.03
2023-04-02T23:17:00.547Z,96602.13
2023-04-02T23:19:26.938Z,96607.84
2023-04-02T23:21:53.287Z,96601.91
2023-04-02T23:24:19.641Z,96599.13
2023-04-02T23:26:46.024Z,96599.00
2023-04-02T23:29:12.412Z,96606.38
2023-04-02T23:31:38.801Z,96597.88
2023-04-02T23:34:05.199Z,96594.66
2023-04-02T23:36:31.581Z,96597.88
2023-04-02T23:38:57.961Z,96602.34
2023-04-02T23:41:24.340Z,96598.38
2023-04-02T23:43:50.736Z,96599.84
2023-04-02T23:46:17.095Z,96601.47
2023-04-02T23:48:43.480Z,96600.16
2023-04-02T23:51:09.830Z,96592.47
2023-04-02T23:53:36.169Z,96594.50
2023-04-02T23:58:28.922Z,96588.53
